Time;durP1;ratioP1;P1;durP2;ratioP2;P2;SDS_P1;SDS_P2;PMS_P1;PMS_P2;Temp;Humidity;BMP_temperature;BMP_pressure;BME280_temperature;BME280_humidity;BME280_pressure;Samples;Min_cycle;Max_cycle;Signal;HPM_P1;HPM_P2
2023/08/28 00:00:27;;;;;;;24.77;14.43;;;;;;;;;;5051840;28;20025;-66
2023/08/28 00:02:54;;;;;;;24.85;13.82;;;;;;;;;;5052615;28;20052;-66
2023/08/28 00:05:20;;;;;;;19.50;12.10;;;;;;;;;;5052526;28;20364;-67
2023/08/28 00:07:45;;;;;;;20.42;13.52;;;;;;;;;;5051978;28;20035;-66
2023/08/28 00:10:11;;;;;;;24.17;14.85;;;;;;;;;;5052378;28;20404;-66
2023/08/28 00:12:40;;;;;;;23.92;14.13;;;;;;;;;;5052520;28;20824;-66
2023/08/28 00:15:07;;;;;;;22.08;14.05;;;;;;;;;;5034852;28;20043;-66
2023/08/28 00:17:33;;;;;;;22.63;13.43;;;;;;;;;;5051497;28;20505;-66
2023/08/28 00:19:59;;;;;;;26.92;14.18;;;;;;;;;;5051517;28;20037;-66
2023/08/28 00:22:24;;;;;;;26.98;15.82;;;;;;;;;;5052561;28;20045;-66
2023/08/28 00:24:50;;;;;;;28.00;15.63;;;;;;;;;;5051614;28;20048;-66
2023/08/28 00:27:15;;;;;;;27.17;16.80;;;;;;;;;;5035140;28;20064;-66
2023/08/28 00:29:41;;;;;;;25.73;17.90;;;;;;;;;;5053166;28;20041;-66
2023/08/28 00:32:07;;;;;;;35.10;17.60;;;;;;;;;;5019803;28;20033;-66
2023/08/28 00:34:33;;;;;;;32.33;18.83;;;;;;;;;;5019467;28;20067;-66
2023/08/28 00:36:59;;;;;;;32.58;17.95;;;;;;;;;;5051218;28;20032;-66
2023/08/28 00:39:24;;;;;;;24.90;17.00;;;;;;;;;;5051082;28;20105;-66
2023/08/28 00:41:50;;;;;;;29.42;16.02;;;;;;;;;;5051041;28;20076;-66
2023/08/28 00:44:15;;;;;;;29.42;16.33;;;;;;;;;;5034724;28;20045;-66
2023/08/28 00:46:41;;;;;;;30.23;18.15;;;;;;;;;;5050911;28;20474;-66
2023/08/28 00:49:08;;;;;;;29.20;17.15;;;;;;;;;;5051003;28;20039;-66
2023/08/28 00:51:33;;;;;;;35.13;16.45;;;;;;;;;;5035082;28;20030;-66
2023/08/28 00:54:01;;;;;;;29.33;15.90;;;;;;;;;;5052426;28;20048;-66
2023/08/28 00:56:26;;;;;;;24.67;13.90;;;;;;;;;;5051749;28;20029;-66
2023/08/28 00:58:52;;;;;;;28.00;13.43;;;;;;;;;;5051423;28;20037;-66
2023/08/28 01:01:17;;;;;;;20.08;12.45;;;;;;;;;;5051281;28;20036;-66
2023/08/28 01:03:43;;;;;;;19.60;9.98;;;;;;;;;;5051680;28;20044;-66
2023/08/28 01:06:21;;;;;;;14.43;8.63;;;;;;;;;;5034426;28;20119;-66
2023/08/28 01:08:53;;;;;;;10.65;6.13;;;;;;;;;;5051633;28;20048;-66
2023/08/28 01:11:24;;;;;;;11.88;5.38;;;;;;;;;;5051960;28;20055;-66
2023/08/28 01:13:52;;;;;;;16.30;7.47;;;;;;;;;;5014234;28;20057;-66
2023/08/28 01:16:19;;;;;;;31.67;15.20;;;;;;;;;;5013383;28;20065;-66
2023/08/28 01:18:45;;;;;;;30.85;15.77;;;;;;;;;;5029539;28;20037;-66
2023/08/28 01:21:11;;;;;;;26.77;17.15;;;;;;;;;;5013362;28;20052;-66
2023/08/28 01:23:39;;;;;;;27.38;17.85;;;;;;;;;;4980165;28;20136;-66
2023/08/28 01:26:05;;;;;;;29.95;17.85;;;;;;;;;;5029650;28;20049;-66
2023/08/28 01:28:31;;;;;;;31.52;19.05;;;;;;;;;;5029657;28;20129;-66
2023/08/28 01:30:57;;;;;;;34.60;19.92;;;;;;;;;;4997256;28;20116;-66
2023/08/28 01:33:23;;;;;;;30.90;20.23;;;;;;;;;;5030456;28;20042;-65
2023/08/28 01:35:58;;;;;;;41.08;22.67;;;;;;;;;;5031431;28;20120;-65
2023/08/28 01:38:28;;;;;;;37.47;23.38;;;;;;;;;;5013934;28;20037;-66
2023/08/28 01:41:01;;;;;;;50.33;26.58;;;;;;;;;;5029812;28;20041;-66
2023/08/28 01:43:41;;;;;;;42.60;24.30;;;;;;;;;;5030768;28;20072;-66
2023/08/28 01:46:07;;;;;;;36.57;24.63;;;;;;;;;;5054840;28;20068;-65
2023/08/28 01:48:40;;;;;;;32.97;23.35;;;;;;;;;;5037352;28;20128;-65
2023/08/28 01:51:06;;;;;;;35.45;21.48;;;;;;;;;;5055107;28;20032;-65
2023/08/28 01:53:33;;;;;;;34.97;19.50;;;;;;;;;;5041488;28;20053;-65
2023/08/28 01:56:07;;;;;;;30.75;19.50;;;;;;;;;;5057647;28;20048;-65
2023/08/28 01:58:38;;;;;;;31.48;20.95;;;;;;;;;;5054635;28;20045;-65
2023/08/28 02:01:04;;;;;;;33.42;20.23;;;;;;;;;;5054029;28;20040;-66
2023/08/28 02:03:30;;;;;;;29.60;19.20;;;;;;;;;;5053901;28;20045;-65
2023/08/28 02:05:55;;;;;;;28.92;18.98;;;;;;;;;;5054054;28;20114;-66
2023/08/28 02:08:22;;;;;;;28.50;18.15;;;;;;;;;;5055386;28;20068;-65
2023/08/28 02:10:48;;;;;;;28.73;17.27;;;;;;;;;;5053902;28;20064;-66
2023/08/28 02:13:14;;;;;;;27.08;17.75;;;;;;;;;;5037448;28;20900;-66
2023/08/28 02:15:40;;;;;;;29.80;17.90;;;;;;;;;;5037928;28;20065;-66
2023/08/28 02:18:06;;;;;;;36.35;17.85;;;;;;;;;;5056007;28;20623;-66
2023/08/28 02:20:32;;;;;;;28.15;17.88;;;;;;;;;;5041192;28;20060;-66
2023/08/28 02:22:59;;;;;;;29.77;17.00;;;;;;;;;;5055669;28;20055;-66
2023/08/28 02:25:24;;;;;;;30.20;16.17;;;;;;;;;;5054326;28;20029;-66
2023/08/28 02:27:50;;;;;;;29.45;16.67;;;;;;;;;;5054147;28;20524;-66
2023/08/28 02:30:17;;;;;;;27.30;15.75;;;;;;;;;;5054136;28;20036;-66
2023/08/28 02:32:42;;;;;;;30.25;16.90;;;;;;;;;;5021002;28;20082;-65
2023/08/28 02:35:09;;;;;;;23.45;15.60;;;;;;;;;;5054736;28;20119;-66
2023/08/28 02:37:35;;;;;;;24.48;15.65;;;;;;;;;;5053562;28;20036;-66
2023/08/28 02:40:01;;;;;;;28.02;15.48;;;;;;;;;;5053269;28;20051;-65
2023/08/28 02:42:29;;;;;;;32.05;15.80;;;;;;;;;;5054157;28;20061;-65
2023/08/28 02:44:56;;;;;;;31.67;15.73;;;;;;;;;;5037033;28;20044;-65
2023/08/28 02:47:21;;;;;;;28.33;15.38;;;;;;;;;;5054874;28;20094;-65
2023/08/28 02:49:47;;;;;;;21.65;13.05;;;;;;;;;;5053523;28;20040;-65
2023/08/28 02:52:13;;;;;;;22.90;13.80;;;;;;;;;;5054769;28;20040;-66
2023/08/28 02:54:38;;;;;;;25.70;13.60;;;;;;;;;;5053677;28;20115;-69
2023/08/28 02:57:04;;;;;;;28.70;15.35;;;;;;;;;;5053085;28;20040;-66
2023/08/28 02:59:31;;;;;;;25.90;13.80;;;;;;;;;;5052936;28;20032;-65
2023/08/28 03:01:58;;;;;;;23.17;13.55;;;;;;;;;;5036457;28;20438;-65
2023/08/28 03:04:24;;;;;;;26.65;13.80;;;;;;;;;;5019839;28;20107;-66
2023/08/28 03:06:50;;;;;;;21.38;13.70;;;;;;;;;;5053931;28;20624;-66
2023/08/28 03:09:15;;;;;;;27.15;13.60;;;;;;;;;;5053197;28;20051;-66
2023/08/28 03:11:41;;;;;;;28.20;14.27;;;;;;;;;;5053948;28;20490;-66
2023/08/28 03:14:07;;;;;;;24.33;13.75;;;;;;;;;;5052939;28;20040;-66
2023/08/28 03:16:32;;;;;;;23.63;14.77;;;;;;;;;;5053013;28;20371;-66
2023/08/28 03:18:58;;;;;;;22.48;12.93;;;;;;;;;;5036831;28;20033;-65
2023/08/28 03:21:23;;;;;;;19.95;13.18;;;;;;;;;;5055714;28;20036;-66
2023/08/28 03:23:50;;;;;;;24.90;15.07;;;;;;;;;;5055931;28;20071;-66
2023/08/28 03:26:16;;;;;;;22.55;14.93;;;;;;;;;;5046649;28;20454;-65
2023/08/28 03:28:41;;;;;;;30.27;15.63;;;;;;;;;;5069061;28;20060;-65
2023/08/28 03:31:07;;;;;;;28.30;18.60;;;;;;;;;;5054169;28;20056;-66
2023/08/28 03:33:33;;;;;;;31.67;17.90;;;;;;;;;;5054124;28;20456;-66
2023/08/28 03:35:59;;;;;;;30.55;17.63;;;;;;;;;;5037393;28;20048;-65
2023/08/28 03:38:25;;;;;;;34.47;18.30;;;;;;;;;;5054085;28;20062;-66
2023/08/28 03:40:51;;;;;;;30.35;16.75;;;;;;;;;;5054161;28;20048;-66
2023/08/28 03:43:17;;;;;;;44.17;19.08;;;;;;;;;;5053961;28;20056;-65
2023/08/28 03:45:43;;;;;;;33.20;16.27;;;;;;;;;;5053619;28;20120;-65
2023/08/28 03:48:09;;;;;;;29.25;15.48;;;;;;;;;;5053452;28;20068;-66
2023/08/28 03:50:35;;;;;;;33.90;15.90;;;;;;;;;;5053332;28;20036;-66
2023/08/28 03:53:01;;;;;;;33.78;16.17;;;;;;;;;;5056773;28;20391;-66
2023/08/28 03:55:27;;;;;;;31.95;15.52;;;;;;;;;;5036098;28;20047;-66
2023/08/28 03:57:53;;;;;;;33.40;15.55;;;;;;;;;;5051674;28;20033;-66
2023/08/28 04:00:19;;;;;;;38.42;16.65;;;;;;;;;;5053073;28;20047;-66
2023/08/28 04:02:46;;;;;;;34.78;15.93;;;;;;;;;;5052038;28;20087;-65
2023/08/28 04:05:12;;;;;;;32.90;15.48;;;;;;;;;;5052215;28;20106;-66
2023/08/28 04:07:37;;;;;;;30.20;13.98;;;;;;;;;;5017752;28;20666;-65
2023/08/28 04:10:03;;;;;;;31.70;14.32;;;;;;;;;;5035438;28;20045;-66
2023/08/28 04:12:31;;;;;;;30.77;13.45;;;;;;;;;;5052060;28;20530;-66
2023/08/28 04:14:57;;;;;;;26.65;12.77;;;;;;;;;;5019121;28;20036;-65
2023/08/28 04:17:23;;;;;;;27.90;12.48;;;;;;;;;;5050039;28;20119;-65
2023/08/28 04:19:50;;;;;;;29.60;11.70;;;;;;;;;;5051167;28;20551;-66
2023/08/28 04:22:17;;;;;;;27.25;11.60;;;;;;;;;;5035143;28;20176;-66
2023/08/28 04:24:45;;;;;;;21.08;10.82;;;;;;;;;;5051797;28;20048;-66
2023/08/28 04:27:11;;;;;;;25.40;11.50;;;;;;;;;;5050972;28;20379;-65
2023/08/28 04:29:40;;;;;;;34.17;11.40;;;;;;;;;;5033677;28;20060;-67
2023/08/28 04:32:11;;;;;;;28.52;11.93;;;;;;;;;;5033454;28;20039;-66
2023/08/28 04:34:37;;;;;;;27.30;12.68;;;;;;;;;;5035016;28;20052;-66
2023/08/28 04:37:03;;;;;;;31.00;14.20;;;;;;;;;;5050488;28;20032;-66
2023/08/28 04:39:29;;;;;;;30.35;13.60;;;;;;;;;;5051322;28;20056;-66
2023/08/28 04:41:55;;;;;;;28.73;12.50;;;;;;;;;;5053189;28;20029;-67
2023/08/28 04:44:20;;;;;;;29.55;12.52;;;;;;;;;;5033827;28;20067;-67
2023/08/28 04:46:47;;;;;;;25.50;11.23;;;;;;;;;;5033752;28;20043;-66
2023/08/28 04:49:14;;;;;;;26.00;11.00;;;;;;;;;;5050491;28;20040;-67
2023/08/28 04:51:40;;;;;;;22.73;10.07;;;;;;;;;;5033653;28;20060;-65
2023/08/28 04:54:08;;;;;;;24.48;9.52;;;;;;;;;;5050222;28;20568;-66
2023/08/28 04:56:34;;;;;;;22.80;9.07;;;;;;;;;;5033212;28;20116;-67
2023/08/28 04:59:01;;;;;;;23.42;10.23;;;;;;;;;;5050019;28;20037;-66
2023/08/28 05:01:27;;;;;;;26.77;10.32;;;;;;;;;;5050245;28;20112;-66
2023/08/28 05:03:53;;;;;;;19.63;9.55;;;;;;;;;;5049938;28;20045;-66
2023/08/28 05:06:18;;;;;;;21.50;9.18;;;;;;;;;;5049830;28;20036;-66
2023/08/28 05:08:44;;;;;;;21.80;9.02;;;;;;;;;;5007264;28;20060;-66
2023/08/28 05:11:09;;;;;;;18.85;8.60;;;;;;;;;;5038742;28;20172;-66
2023/08/28 05:13:35;;;;;;;16.08;8.38;;;;;;;;;;5038536;28;20472;-65
2023/08/28 05:16:01;;;;;;;19.98;8.10;;;;;;;;;;5037960;28;20034;-66
2023/08/28 05:18:27;;;;;;;14.73;6.78;;;;;;;;;;5026374;28;20045;-66
2023/08/28 05:20:54;;;;;;;13.93;7.57;;;;;;;;;;5042596;28;20025;-66
2023/08/28 05:23:25;;;;;;;16.67;7.97;;;;;;;;;;5049884;28;20529;-67
2023/08/28 05:25:51;;;;;;;17.38;7.68;;;;;;;;;;5053956;28;20142;-67
2023/08/28 05:28:17;;;;;;;18.52;7.43;;;;;;;;;;5053996;28;20112;-67
2023/08/28 05:30:44;;;;;;;14.00;6.95;;;;;;;;;;5051758;28;20017;-67
2023/08/28 05:33:10;;;;;;;12.25;7.20;;;;;;;;;;5036913;28;20051;-67
2023/08/28 05:35:36;;;;;;;16.17;6.28;;;;;;;;;;5001288;28;20479;-67
2023/08/28 05:38:01;;;;;;;13.68;6.47;;;;;;;;;;5017458;28;20033;-68
2023/08/28 05:40:28;;;;;;;13.70;6.32;;;;;;;;;;5034810;28;20478;-68
2023/08/28 05:42:53;;;;;;;12.70;5.65;;;;;;;;;;5034197;28;20053;-67
2023/08/28 05:45:19;;;;;;;10.35;5.35;;;;;;;;;;5035041;28;20391;-68
2023/08/28 05:47:45;;;;;;;13.05;5.82;;;;;;;;;;5033781;28;20041;-67
2023/08/28 05:50:11;;;;;;;9.98;4.88;;;;;;;;;;5034599;28;20096;-66
2023/08/28 05:52:38;;;;;;;12.13;4.82;;;;;;;;;;5033340;28;20049;-67
2023/08/28 05:55:06;;;;;;;10.98;5.10;;;;;;;;;;5033859;28;20029;-67
2023/08/28 05:57:33;;;;;;;11.95;5.18;;;;;;;;;;5033660;28;20056;-66
2023/08/28 06:00:00;;;;;;;16.98;5.78;;;;;;;;;;5034141;28;20034;-67
2023/08/28 06:02:26;;;;;;;12.80;5.50;;;;;;;;;;5049015;28;20041;-66
2023/08/28 06:04:52;;;;;;;13.07;5.90;;;;;;;;;;5044046;28;20049;-67
2023/08/28 06:07:19;;;;;;;11.75;5.57;;;;;;;;;;5027238;28;20044;-66
2023/08/28 06:09:45;;;;;;;11.00;6.32;;;;;;;;;;4999167;28;20028;-65
2023/08/28 06:12:11;;;;;;;14.95;5.82;;;;;;;;;;5044625;28;20085;-66
2023/08/28 06:14:36;;;;;;;15.55;5.78;;;;;;;;;;5042214;28;20021;-66
2023/08/28 06:17:03;;;;;;;14.43;6.05;;;;;;;;;;5027220;28;20033;-66
2023/08/28 06:19:29;;;;;;;11.82;6.72;;;;;;;;;;5041785;28;20030;-66
2023/08/28 06:21:55;;;;;;;16.13;6.43;;;;;;;;;;5042511;28;20127;-65
2023/08/28 06:24:21;;;;;;;16.90;6.10;;;;;;;;;;5044748;28;20048;-66
2023/08/28 06:26:47;;;;;;;10.98;5.88;;;;;;;;;;5001049;28;20353;-66
2023/08/28 06:29:13;;;;;;;14.35;6.82;;;;;;;;;;5044202;28;20120;-69
2023/08/28 06:31:38;;;;;;;15.30;5.68;;;;;;;;;;5052438;28;20186;-66
2023/08/28 06:34:04;;;;;;;12.48;5.15;;;;;;;;;;5053725;28;20417;-66
2023/08/28 06:36:31;;;;;;;24.00;5.60;;;;;;;;;;5053526;28;20357;-66
2023/08/28 06:38:57;;;;;;;10.07;5.03;;;;;;;;;;5053087;28;20482;-66
2023/08/28 06:41:22;;;;;;;9.93;4.80;;;;;;;;;;5052342;28;20127;-66
2023/08/28 06:43:48;;;;;;;7.70;3.50;;;;;;;;;;5035682;28;20052;-67
2023/08/28 06:46:15;;;;;;;9.57;3.35;;;;;;;;;;5036271;28;20033;-66
2023/08/28 06:48:43;;;;;;;7.93;3.40;;;;;;;;;;5035863;28;20098;-68
2023/08/28 06:51:12;;;;;;;12.00;3.78;;;;;;;;;;5036243;28;20036;-67
2023/08/28 06:53:38;;;;;;;8.50;3.00;;;;;;;;;;5019564;28;20510;-67
2023/08/28 06:56:05;;;;;;;10.48;3.50;;;;;;;;;;5031693;28;20060;-67
2023/08/28 06:58:31;;;;;;;7.60;3.53;;;;;;;;;;5032342;28;20045;-66
2023/08/28 07:00:57;;;;;;;9.85;3.05;;;;;;;;;;5032354;28;20163;-66
2023/08/28 07:03:23;;;;;;;8.48;3.75;;;;;;;;;;5015629;28;20052;-67
2023/08/28 07:05:51;;;;;;;6.78;3.53;;;;;;;;;;5015787;28;20091;-66
2023/08/28 07:08:16;;;;;;;8.00;3.15;;;;;;;;;;5015647;28;20475;-67
2023/08/28 07:10:42;;;;;;;6.10;3.10;;;;;;;;;;5015915;28;20037;-67
2023/08/28 07:13:08;;;;;;;6.03;3.10;;;;;;;;;;5032637;28;20033;-67
2023/08/28 07:15:34;;;;;;;7.50;3.15;;;;;;;;;;5031982;28;20044;-68
2023/08/28 07:18:00;;;;;;;14.70;4.32;;;;;;;;;;5032444;28;20033;-67
2023/08/28 07:20:25;;;;;;;10.38;3.17;;;;;;;;;;5033037;28;20037;-67
2023/08/28 07:22:54;;;;;;;8.60;3.20;;;;;;;;;;5033294;28;20582;-68
2023/08/28 07:25:22;;;;;;;8.60;3.45;;;;;;;;;;5031755;28;20056;-68
2023/08/28 07:27:48;;;;;;;8.88;3.45;;;;;;;;;;5033798;28;20061;-66
2023/08/28 07:30:15;;;;;;;10.50;3.50;;;;;;;;;;5037602;28;20366;-67
2023/08/28 07:32:40;;;;;;;12.32;3.30;;;;;;;;;;5009385;28;20037;-68
2023/08/28 07:35:07;;;;;;;7.15;3.10;;;;;;;;;;5010027;28;20029;-69
2023/08/28 07:37:33;;;;;;;6.78;3.20;;;;;;;;;;5036852;28;20041;-68
2023/08/28 07:39:59;;;;;;;14.63;4.13;;;;;;;;;;4998678;28;20517;-68
2023/08/28 07:42:25;;;;;;;6.43;3.00;;;;;;;;;;5014866;28;20061;-67
2023/08/28 07:44:51;;;;;;;6.65;2.80;;;;;;;;;;5015038;28;20045;-67
2023/08/28 07:47:19;;;;;;;7.68;2.90;;;;;;;;;;5032252;28;20431;-68
2023/08/28 07:49:44;;;;;;;6.63;3.35;;;;;;;;;;5014339;28;20128;-70
2023/08/28 07:52:10;;;;;;;8.13;2.80;;;;;;;;;;5031990;28;20120;-69
2023/08/28 07:54:36;;;;;;;9.70;2.60;;;;;;;;;;5031030;28;20033;-69
2023/08/28 07:57:04;;;;;;;8.38;2.58;;;;;;;;;;5032463;28;20037;-68
2023/08/28 07:59:30;;;;;;;7.25;2.40;;;;;;;;;;5032918;28;20103;-69
2023/08/28 08:01:57;;;;;;;4.85;2.22;;;;;;;;;;5031284;28;20129;-69
2023/08/28 08:04:23;;;;;;;6.70;2.35;;;;;;;;;;5030747;28;20364;-70
2023/08/28 08:06:49;;;;;;;3.22;2.00;;;;;;;;;;5014456;28;20041;-69
2023/08/28 08:09:15;;;;;;;4.00;2.20;;;;;;;;;;5030770;28;20072;-69
2023/08/28 08:11:41;;;;;;;5.38;2.13;;;;;;;;;;5029930;28;20567;-69
2023/08/28 08:14:07;;;;;;;9.00;2.42;;;;;;;;;;5014302;28;20038;-69
2023/08/28 08:16:33;;;;;;;4.75;2.55;;;;;;;;;;5030394;28;20343;-69
2023/08/28 08:18:59;;;;;;;5.63;2.35;;;;;;;;;;5014261;28;20048;-69
2023/08/28 08:21:25;;;;;;;6.15;2.58;;;;;;;;;;5014134;28;20041;-69
2023/08/28 08:23:50;;;;;;;6.10;2.20;;;;;;;;;;5031508;28;20057;-70
2023/08/28 08:26:16;;;;;;;4.20;2.20;;;;;;;;;;5030942;28;20037;-70
2023/08/28 08:28:43;;;;;;;3.50;2.40;;;;;;;;;;5014654;28;20120;-69
2023/08/28 08:31:08;;;;;;;4.65;2.10;;;;;;;;;;5014776;28;20037;-69
2023/08/28 08:33:34;;;;;;;4.53;2.10;;;;;;;;;;5014159;28;20037;-69
2023/08/28 08:36:00;;;;;;;4.70;2.05;;;;;;;;;;5031907;28;20029;-69
2023/08/28 08:38:25;;;;;;;6.90;2.20;;;;;;;;;;5041456;28;20440;-69
2023/08/28 08:40:52;;;;;;;6.82;2.38;;;;;;;;;;5051351;28;20134;-68
2023/08/28 08:43:19;;;;;;;4.00;2.47;;;;;;;;;;5033458;28;20194;-68
2023/08/28 08:45:47;;;;;;;9.00;2.58;;;;;;;;;;5049889;28;20145;-69
2023/08/28 08:48:16;;;;;;;5.35;2.38;;;;;;;;;;5026526;28;20064;-70
2023/08/28 08:50:43;;;;;;;5.18;2.20;;;;;;;;;;5039825;28;20479;-68
2023/08/28 08:53:12;;;;;;;6.65;2.17;;;;;;;;;;5038323;28;20036;-68
2023/08/28 08:55:41;;;;;;;6.47;2.40;;;;;;;;;;5040563;28;20139;-69
2023/08/28 08:58:10;;;;;;;7.20;2.65;;;;;;;;;;5010817;28;20037;-68
2023/08/28 09:00:38;;;;;;;7.28;2.50;;;;;;;;;;5029873;28;20037;-69
2023/08/28 09:03:07;;;;;;;7.60;3.05;;;;;;;;;;5006952;28;20064;-68
2023/08/28 09:05:34;;;;;;;9.85;3.00;;;;;;;;;;5038865;28;20124;-68
2023/08/28 09:07:59;;;;;;;5.93;2.58;;;;;;;;;;5040358;28;20427;-68
2023/08/28 09:10:25;;;;;;;4.35;2.40;;;;;;;;;;5040293;28;20047;-68
2023/08/28 09:12:51;;;;;;;3.78;2.42;;;;;;;;;;5037216;28;20025;-70
2023/08/28 09:15:18;;;;;;;11.10;2.40;;;;;;;;;;5013648;28;20352;-69
2023/08/28 09:17:44;;;;;;;2.90;2.20;;;;;;;;;;4996981;28;20559;-69
2023/08/28 09:20:13;;;;;;;4.40;2.00;;;;;;;;;;5029749;28;20041;-69
2023/08/28 09:22:46;;;;;;;5.25;2.10;;;;;;;;;;5029928;28;20451;-69
2023/08/28 09:25:11;;;;;;;6.43;2.22;;;;;;;;;;5013751;28;20042;-70
2023/08/28 09:27:41;;;;;;;8.18;2.40;;;;;;;;;;5029573;28;20048;-69
2023/08/28 09:30:08;;;;;;;3.08;2.35;;;;;;;;;;5029763;28;20047;-69
2023/08/28 09:32:34;;;;;;;5.13;2.30;;;;;;;;;;5013314;28;20048;-69
2023/08/28 09:34:59;;;;;;;5.85;2.40;;;;;;;;;;5013768;28;20050;-69
2023/08/28 09:37:27;;;;;;;6.93;2.28;;;;;;;;;;5013757;28;20087;-69
2023/08/28 09:39:54;;;;;;;5.13;2.27;;;;;;;;;;5032796;28;20113;-69
2023/08/28 09:42:22;;;;;;;5.68;2.05;;;;;;;;;;5007589;28;20053;-68
2023/08/28 09:44:49;;;;;;;4.85;2.10;;;;;;;;;;5038088;28;21033;-69
2023/08/28 09:47:19;;;;;;;4.72;2.30;;;;;;;;;;5008172;28;20043;-69
2023/08/28 09:49:45;;;;;;;6.20;2.05;;;;;;;;;;5040743;28;20036;-69
2023/08/28 09:52:12;;;;;;;5.95;2.13;;;;;;;;;;5016018;28;20037;-69
2023/08/28 09:54:39;;;;;;;3.35;2.00;;;;;;;;;;5028896;28;20063;-69
2023/08/28 09:57:14;;;;;;;3.72;2.17;;;;;;;;;;5023013;28;20041;-69
2023/08/28 09:59:40;;;;;;;5.88;2.47;;;;;;;;;;5005712;28;20041;-68
2023/08/28 10:02:06;;;;;;;8.40;2.42;;;;;;;;;;5021259;28;20052;-67
2023/08/28 10:04:34;;;;;;;4.70;2.38;;;;;;;;;;5040146;28;20056;-71
2023/08/28 10:07:00;;;;;;;7.07;2.85;;;;;;;;;;5019918;28;20517;-67
2023/08/28 10:09:29;;;;;;;5.03;2.95;;;;;;;;;;5032321;28;20091;-68
2023/08/28 10:11:55;;;;;;;6.75;3.85;;;;;;;;;;5024644;28;20041;-68
2023/08/28 10:14:22;;;;;;;8.07;3.35;;;;;;;;;;5023823;28;20060;-68
2023/08/28 10:16:54;;;;;;;6.85;3.60;;;;;;;;;;5024484;28;20068;-67
2023/08/28 10:19:27;;;;;;;9.45;3.35;;;;;;;;;;5011155;28;20506;-68
2023/08/28 10:21:54;;;;;;;8.13;3.45;;;;;;;;;;5016195;28;20560;-68
2023/08/28 10:24:20;;;;;;;7.15;3.78;;;;;;;;;;5015634;28;20127;-68
2023/08/28 10:26:47;;;;;;;9.88;3.70;;;;;;;;;;5040033;28;20045;-67
2023/08/28 10:29:18;;;;;;;8.70;3.90;;;;;;;;;;5040444;28;20223;-67
2023/08/28 10:31:44;;;;;;;9.15;4.38;;;;;;;;;;5013978;28;20033;-67
2023/08/28 10:34:11;;;;;;;6.55;3.80;;;;;;;;;;5008190;28;20045;-68
2023/08/28 10:36:38;;;;;;;6.53;3.63;;;;;;;;;;5047377;28;20088;-68
2023/08/28 10:39:04;;;;;;;8.40;3.08;;;;;;;;;;5034964;28;20037;-70
2023/08/28 10:41:30;;;;;;;6.85;3.30;;;;;;;;;;5032769;28;20041;-69
2023/08/28 10:43:57;;;;;;;6.75;2.70;;;;;;;;;;5033768;28;20139;-69
2023/08/28 10:46:27;;;;;;;5.00;2.72;;;;;;;;;;5052402;28;20032;-69
2023/08/28 10:48:57;;;;;;;7.10;3.38;;;;;;;;;;5051178;28;20056;-70
2023/08/28 10:51:23;;;;;;;;;;;;;;;;;;5051604;28;20213;-70
2023/08/28 10:53:51;;;;;;;12.45;3.75;;;;;;;;;;5051067;28;20043;-69
2023/08/28 10:56:17;;;;;;;10.38;3.20;;;;;;;;;;5051384;28;20048;-71
2023/08/28 10:58:45;;;;;;;4.35;2.78;;;;;;;;;;5050943;28;20108;-69
2023/08/28 11:01:13;;;;;;;7.55;2.85;;;;;;;;;;5018116;28;20070;-70
2023/08/28 11:03:57;;;;;;;8.23;3.60;;;;;;;;;;5034204;28;20040;-70
2023/08/28 11:06:39;;;;;;;13.05;3.60;;;;;;;;;;5050897;28;20094;-70
2023/08/28 11:09:23;;;;;;;9.50;3.67;;;;;;;;;;5051002;28;20045;-69
2023/08/28 11:11:50;;;;;;;8.23;3.88;;;;;;;;;;5050243;28;20068;-69
2023/08/28 11:14:16;;;;;;;5.60;3.53;;;;;;;;;;5034140;28;20497;-70
2023/08/28 11:16:41;;;;;;;9.35;3.55;;;;;;;;;;5033683;28;20033;-69
2023/08/28 11:19:07;;;;;;;8.27;3.30;;;;;;;;;;5051572;28;20127;-69
2023/08/28 11:21:44;;;;;;;11.15;3.83;;;;;;;;;;5050914;28;20076;-71
2023/08/28 11:24:25;;;;;;;9.38;3.08;;;;;;;;;;5052018;28;20032;-69
2023/08/28 11:26:52;;;;;;;8.13;3.03;;;;;;;;;;5050539;28;20190;-69
2023/08/28 11:29:25;;;;;;;6.47;2.90;;;;;;;;;;5024833;28;20025;-69
2023/08/28 11:31:53;;;;;;;6.85;3.03;;;;;;;;;;5050185;28;20045;-68
2023/08/28 11:34:19;;;;;;;8.65;3.38;;;;;;;;;;5035868;28;20361;-67
2023/08/28 11:36:45;;;;;;;5.43;2.88;;;;;;;;;;5051725;28;20486;-68
2023/08/28 11:39:19;;;;;;;9.38;3.47;;;;;;;;;;5051766;28;20051;-68
2023/08/28 11:41:47;;;;;;;10.45;4.55;;;;;;;;;;5051794;28;20518;-68
2023/08/28 11:44:12;;;;;;;7.22;4.30;;;;;;;;;;5032164;28;20091;-69
2023/08/28 11:46:40;;;;;;;6.50;3.92;;;;;;;;;;5014980;28;20131;-68
2023/08/28 11:49:06;;;;;;;8.88;2.92;;;;;;;;;;5015046;28;20076;-67
2023/08/28 11:51:32;;;;;;;9.15;3.63;;;;;;;;;;5031605;28;20127;-67
2023/08/28 11:53:59;;;;;;;10.13;4.10;;;;;;;;;;5031386;28;20445;-67
2023/08/28 11:56:25;;;;;;;15.23;4.13;;;;;;;;;;5031252;28;20068;-67
2023/08/28 11:58:53;;;;;;;5.25;3.20;;;;;;;;;;4998706;28;20045;-69
2023/08/28 12:01:19;;;;;;;8.75;3.80;;;;;;;;;;5014862;28;20378;-66
2023/08/28 12:03:45;;;;;;;4.88;3.33;;;;;;;;;;5030945;28;20047;-66
2023/08/28 12:06:17;;;;;;;11.35;4.05;;;;;;;;;;4998855;28;20386;-67
2023/08/28 12:08:44;;;;;;;11.75;4.30;;;;;;;;;;5031030;28;20156;-66
2023/08/28 12:11:15;;;;;;;8.90;4.45;;;;;;;;;;5030795;28;20485;-67
2023/08/28 12:13:40;;;;;;;12.02;3.92;;;;;;;;;;5031342;28;20445;-68
2023/08/28 12:16:09;;;;;;;9.43;3.78;;;;;;;;;;5030176;28;20045;-67
2023/08/28 12:18:49;;;;;;;5.22;3.88;;;;;;;;;;5030668;28;20487;-67
2023/08/28 12:21:16;;;;;;;5.57;3.50;;;;;;;;;;5014896;28;20124;-67
2023/08/28 12:23:45;;;;;;;7.78;4.00;;;;;;;;;;5030478;28;20388;-67
2023/08/28 12:26:11;;;;;;;8.97;3.77;;;;;;;;;;5014147;28;20211;-67
2023/08/28 12:28:37;;;;;;;9.45;3.95;;;;;;;;;;5029669;28;20827;-66
2023/08/28 12:31:02;;;;;;;8.73;4.53;;;;;;;;;;5014326;28;20063;-67
2023/08/28 12:33:28;;;;;;;11.10;4.22;;;;;;;;;;5030279;28;20053;-66
2023/08/28 12:35:55;;;;;;;7.45;3.85;;;;;;;;;;5030201;28;20041;-66
2023/08/28 12:38:21;;;;;;;10.65;4.20;;;;;;;;;;5030447;28;20041;-66
2023/08/28 12:40:50;;;;;;;9.00;3.70;;;;;;;;;;5030546;28;20336;-66
2023/08/28 12:43:17;;;;;;;8.90;3.70;;;;;;;;;;5030303;28;20084;-66
2023/08/28 12:45:44;;;;;;;6.47;3.42;;;;;;;;;;5030016;28;20033;-67
2023/08/28 12:48:09;;;;;;;5.28;3.83;;;;;;;;;;5031604;28;20048;-67
2023/08/28 12:50:36;;;;;;;6.75;3.60;;;;;;;;;;5030768;28;20029;-68
2023/08/28 12:53:04;;;;;;;11.48;4.28;;;;;;;;;;5018898;28;20033;-66
2023/08/28 12:55:30;;;;;;;10.10;4.65;;;;;;;;;;5040385;28;20498;-67
2023/08/28 12:57:56;;;;;;;11.68;4.22;;;;;;;;;;5042157;28;20040;-67
2023/08/28 13:00:23;;;;;;;13.95;4.72;;;;;;;;;;5024675;28;20036;-66
2023/08/28 13:02:50;;;;;;;13.45;5.10;;;;;;;;;;5039582;28;20033;-66
2023/08/28 13:05:16;;;;;;;9.93;4.95;;;;;;;;;;5040692;28;20029;-68
2023/08/28 13:07:42;;;;;;;11.30;4.72;;;;;;;;;;5039188;28;20044;-66
2023/08/28 13:10:08;;;;;;;11.43;5.53;;;;;;;;;;5023121;28;20487;-66
2023/08/28 13:12:34;;;;;;;10.48;5.15;;;;;;;;;;5031798;28;20094;-68
2023/08/28 13:15:02;;;;;;;11.27;5.25;;;;;;;;;;5039157;28;20041;-67
2023/08/28 13:17:44;;;;;;;18.15;7.07;;;;;;;;;;5038220;28;20108;-67
2023/08/28 13:20:14;;;;;;;5.75;4.30;;;;;;;;;;5038245;28;20056;-68
2023/08/28 13:22:41;;;;;;;8.52;4.85;;;;;;;;;;5022740;28;20502;-69
2023/08/28 13:25:07;;;;;;;10.40;5.35;;;;;;;;;;5008184;28;20045;-68
2023/08/28 13:27:34;;;;;;;17.67;5.15;;;;;;;;;;5050937;28;20053;-68
2023/08/28 13:30:01;;;;;;;7.40;4.22;;;;;;;;;;5034265;28;20029;-69
2023/08/28 13:32:28;;;;;;;10.93;4.60;;;;;;;;;;5033040;28;20114;-70
2023/08/28 13:34:53;;;;;;;10.82;4.45;;;;;;;;;;5049186;28;20029;-68
2023/08/28 13:37:20;;;;;;;7.97;4.07;;;;;;;;;;5049347;28;20052;-68
2023/08/28 13:39:46;;;;;;;5.72;4.35;;;;;;;;;;5036018;28;20033;-68
2023/08/28 13:42:15;;;;;;;8.98;4.72;;;;;;;;;;5037745;28;20204;-68
2023/08/28 13:44:40;;;;;;;6.93;4.47;;;;;;;;;;5054554;28;20048;-68
2023/08/28 13:47:07;;;;;;;9.98;4.10;;;;;;;;;;5053744;28;20124;-68
2023/08/28 13:49:33;;;;;;;9.77;4.32;;;;;;;;;;5017260;28;20053;-69
2023/08/28 13:52:00;;;;;;;7.53;4.38;;;;;;;;;;5035178;28;20582;-68
2023/08/28 13:54:26;;;;;;;9.70;5.03;;;;;;;;;;5033892;28;20469;-68
2023/08/28 13:56:52;;;;;;;15.38;5.20;;;;;;;;;;5033266;28;20091;-69
2023/08/28 13:59:19;;;;;;;12.93;5.38;;;;;;;;;;5001203;28;20029;-69
2023/08/28 14:01:46;;;;;;;12.57;4.68;;;;;;;;;;5035467;28;20045;-68
2023/08/28 14:04:12;;;;;;;9.60;5.30;;;;;;;;;;5036201;28;20629;-68
2023/08/28 14:06:37;;;;;;;9.75;4.88;;;;;;;;;;5020908;28;20127;-68
2023/08/28 14:09:04;;;;;;;9.77;4.72;;;;;;;;;;5036291;28;20109;-68
2023/08/28 14:11:29;;;;;;;9.68;4.75;;;;;;;;;;5052401;28;20045;-68
2023/08/28 14:13:55;;;;;;;7.10;4.82;;;;;;;;;;5035113;28;20032;-68
2023/08/28 14:16:21;;;;;;;12.90;5.15;;;;;;;;;;5041488;28;20048;-68
2023/08/28 14:18:47;;;;;;;7.40;4.80;;;;;;;;;;5045219;28;20029;-68
2023/08/28 14:21:14;;;;;;;11.50;4.82;;;;;;;;;;5055120;28;20059;-68
2023/08/28 14:23:40;;;;;;;8.68;5.50;;;;;;;;;;5071517;28;20052;-68
2023/08/28 14:26:06;;;;;;;11.68;4.57;;;;;;;;;;5038634;28;20059;-68
2023/08/28 14:28:33;;;;;;;11.35;5.78;;;;;;;;;;5071656;28;20033;-68